Time;durP1;ratioP1;P1;durP2;ratioP2;P2;SDS_P1;SDS_P2;PMS_P1;PMS_P2;Temp;Humidity;BMP_temperature;BMP_pressure;BME280_temperature;BME280_humidity;BME280_pressure;Samples;Min_cycle;Max_cycle;Signal;HPM_P1;HPM_P2
2022/01/19 00:00:37;;;;;;;10.45;5.03;;;;;;;-0.82;79.88;98124.23;1709181;84;21232;-81
2022/01/19 00:03:05;;;;;;;14.53;6.25;;;;;;;-0.82;79.90;98122.51;1709532;84;20967;-80
2022/01/19 00:05:30;;;;;;;10.78;4.80;;;;;;;-0.83;79.63;98122.13;1709631;84;21006;-80
2022/01/19 00:07:56;;;;;;;14.20;5.15;;;;;;;-0.82;79.75;98121.68;1709807;83;21365;-80
2022/01/19 00:10:27;;;;;;;12.50;5.15;;;;;;;-0.81;79.61;98122.09;1689154;84;20955;-80
2022/01/19 00:12:49;;;;;;;12.88;5.20;;;;;;;-0.77;79.65;98110.84;1708757;84;21358;-80
2022/01/19 00:15:15;;;;;;;11.65;5.35;;;;;;;-0.75;79.46;98107.31;1698172;83;20980;-80
2022/01/19 00:17:41;;;;;;;9.20;4.40;;;;;;;-0.75;79.43;98108.59;1696627;82;21063;-80
2022/01/19 00:20:08;;;;;;;10.55;4.75;;;;;;;-0.76;79.44;98106.11;1696654;84;20983;-80
2022/01/19 00:22:33;;;;;;;7.97;4.47;;;;;;;-0.75;79.31;98106.48;1696769;84;21075;-80
2022/01/19 00:24:59;;;;;;;11.15;4.60;;;;;;;-0.76;79.29;98102.28;1696793;84;21038;-80
2022/01/19 00:27:26;;;;;;;6.97;3.83;;;;;;;-0.75;79.29;98109.05;1696554;85;21031;-80
2022/01/19 00:29:52;;;;;;;11.22;4.83;;;;;;;-0.74;79.17;98105.14;1696861;83;21054;-80
2022/01/19 00:32:19;;;;;;;10.75;4.83;;;;;;;-0.73;79.32;98112.34;1696761;84;20980;-80
2022/01/19 00:34:45;;;;;;;13.55;7.00;;;;;;;-0.70;79.22;98109.65;1675212;82;20956;-80
2022/01/19 00:37:10;;;;;;;6.95;3.85;;;;;;;-0.69;79.15;98100.64;1696945;84;21006;-80
2022/01/19 00:39:36;;;;;;;11.10;4.90;;;;;;;-0.65;79.20;98098.35;1675031;84;21007;-80
2022/01/19 00:42:02;;;;;;;16.30;6.62;;;;;;;-0.64;79.12;98106.84;1696851;83;20947;-80
2022/01/19 00:44:28;;;;;;;12.25;6.90;;;;;;;-0.63;79.03;98109.31;1696837;84;21395;-80
2022/01/19 00:46:54;;;;;;;16.55;6.92;;;;;;;-0.62;79.12;98110.14;1696932;84;20968;-80
2022/01/19 00:49:20;;;;;;;18.15;8.40;;;;;;;-0.57;79.35;98106.09;1696778;84;21016;-80
2022/01/19 00:51:46;;;;;;;17.23;8.58;;;;;;;-0.53;79.28;98112.25;1696745;84;21036;-80
2022/01/19 00:54:11;;;;;;;18.25;8.65;;;;;;;-0.51;79.13;98114.73;1696587;84;21085;-81
2022/01/19 00:56:37;;;;;;;17.82;9.68;;;;;;;-0.48;79.36;98108.23;1675261;84;20975;-80
2022/01/19 00:59:03;;;;;;;23.05;11.40;;;;;;;-0.43;79.33;98117.33;1696743;84;20991;-80
2022/01/19 01:01:29;;;;;;;20.85;11.35;;;;;;;-0.40;79.31;98118.45;1696873;83;21011;-80
2022/01/19 01:03:54;;;;;;;16.07;7.67;;;;;;;-0.38;79.10;98113.27;1696643;83;20967;-80
2022/01/19 01:06:20;;;;;;;17.48;9.73;;;;;;;-0.36;79.07;98109.74;1696558;84;21452;-80
2022/01/19 01:08:46;;;;;;;18.67;11.00;;;;;;;-0.34;78.92;98110.95;1696744;84;21007;-81
2022/01/19 01:11:12;;;;;;;14.35;8.10;;;;;;;-0.34;78.70;98109.22;1696704;83;21038;-80
2022/01/19 01:16:40;;;;;;;21.50;6.28;;;;;;;-0.39;78.31;98095.84;1684487;85;21332;-80
2022/01/19 01:19:07;;;;;;;13.05;6.10;;;;;;;-0.37;78.23;98091.48;1687416;85;21016;-80
2022/01/19 01:21:33;;;;;;;14.30;5.97;;;;;;;-0.36;78.28;98078.27;1688665;85;21028;-80
2022/01/19 01:23:59;;;;;;;10.85;5.72;;;;;;;-0.38;78.39;98078.34;1688566;85;21469;-80
2022/01/19 01:26:25;;;;;;;13.08;7.35;;;;;;;-0.33;78.40;98068.76;1688814;85;21004;-80
2022/01/19 01:28:50;;;;;;;15.00;7.28;;;;;;;-0.34;78.40;98058.59;1688872;85;21056;-80
2022/01/19 01:31:16;;;;;;;15.08;6.90;;;;;;;-0.35;78.33;98050.55;1685076;83;20992;-80
2022/01/19 01:33:42;;;;;;;11.03;5.70;;;;;;;-0.33;78.54;98044.91;1672699;85;21059;-80
2022/01/19 01:36:08;;;;;;;12.65;6.00;;;;;;;-0.31;78.35;98032.92;1688572;85;21411;-80
2022/01/19 01:38:34;;;;;;;15.60;5.95;;;;;;;-0.32;78.30;98014.67;1688382;85;21036;-80
2022/01/19 01:41:00;;;;;;;12.40;6.37;;;;;;;-0.33;78.21;98013.84;1688877;85;21450;-81
2022/01/19 01:43:26;;;;;;;12.45;6.22;;;;;;;-0.31;78.38;98009.94;1689016;85;20977;-80
2022/01/19 01:45:58;;;;;;;12.03;7.03;;;;;;;-0.27;78.42;98008.05;1688768;85;21002;-80
2022/01/19 01:48:22;;;;;;;13.93;7.45;;;;;;;-0.24;78.23;98002.33;1687218;85;20988;-81
2022/01/19 01:53:32;;;;;;;14.93;7.00;;;;;;;-0.23;78.25;97992.94;1688723;85;21151;-81
2022/01/19 01:56:16;;;;;;;14.33;6.60;;;;;;;-0.24;78.07;97995.13;1688768;85;21044;-80
2022/01/19 01:58:46;;;;;;;14.73;6.12;;;;;;;-0.27;78.18;97996.11;1688822;85;21011;-80
2022/01/19 02:01:12;;;;;;;15.00;6.67;;;;;;;-0.28;78.05;97997.01;1688748;85;20984;-80
2022/01/19 02:03:39;;;;;;;14.28;7.40;;;;;;;-0.25;78.21;97993.47;1669300;85;21007;-80
2022/01/19 02:08:57;;;;;;;15.05;7.97;;;;;;;-0.21;78.05;97992.41;1688775;85;21123;-80
2022/01/19 02:23:22;;;;;;;13.35;8.35;;;;;;;-0.22;77.78;97961.38;1679735;85;21451;-80
2022/01/19 02:25:52;;;;;;;14.45;7.83;;;;;;;-0.24;77.80;97950.42;1687401;85;21067;-80
2022/01/19 02:41:46;;;;;;;22.05;12.15;;;;;;;-0.21;77.60;97937.03;1688435;85;21108;-80
2022/01/19 02:44:16;;;;;;;20.72;11.45;;;;;;;-0.27;77.35;97929.69;1688767;85;21422;-80
2022/01/19 02:49:24;;;;;;;16.57;10.10;;;;;;;-0.30;77.35;97924.73;1688935;85;21020;-80
2022/01/19 02:51:52;;;;;;;21.00;11.53;;;;;;;-0.35;77.30;97917.28;1688548;85;21003;-81
2022/01/19 02:54:22;;;;;;;22.17;11.08;;;;;;;-0.37;77.13;97921.65;1688661;85;21055;-80
2022/01/19 02:56:51;;;;;;;16.80;9.20;;;;;;;-0.42;76.94;97922.34;1688781;85;21402;-80
2022/01/19 02:59:23;;;;;;;20.23;10.13;;;;;;;-0.43;76.99;97925.80;1708975;83;21033;-80
2022/01/19 03:09:46;;;;;;;19.70;10.58;;;;;;;-0.60;76.76;97900.27;1696625;84;20984;-80
2022/01/19 03:12:12;;;;;;;23.10;11.80;;;;;;;-0.65;76.76;97899.23;1696764;84;21024;-80
2022/01/19 03:14:38;;;;;;;16.77;8.93;;;;;;;-0.70;76.71;97904.98;1675015;84;21043;-80
2022/01/19 03:17:05;;;;;;;44.38;23.75;;;;;;;-0.76;76.84;97907.85;1697035;84;21003;-80
2022/01/19 03:19:32;;;;;;;23.15;14.40;;;;;;;-0.82;77.04;97904.30;1696540;84;21104;-80
2022/01/19 03:21:58;;;;;;;19.20;11.50;;;;;;;-0.85;77.30;97899.34;1675443;84;21043;-80
2022/01/19 03:24:24;;;;;;;15.68;9.20;;;;;;;-0.79;77.34;97897.80;1696860;83;21015;-80
2022/01/19 03:26:49;;;;;;;14.20;7.60;;;;;;;-0.80;77.38;97892.77;1696859;84;21003;-80
2022/01/19 03:29:15;;;;;;;9.30;5.97;;;;;;;-0.84;77.31;97885.69;1696599;84;21346;-80
2022/01/19 03:31:41;;;;;;;14.15;5.95;;;;;;;-0.88;77.23;97888.47;1682911;83;21007;-81
2022/01/19 03:34:07;;;;;;;8.80;5.15;;;;;;;-0.89;77.42;97895.30;1682564;84;20999;-80
2022/01/19 03:36:34;;;;;;;15.15;5.40;;;;;;;-0.90;77.70;97888.55;1696752;83;20932;-80
2022/01/19 03:39:00;;;;;;;12.23;7.45;;;;;;;-0.95;77.61;97886.23;1696487;84;21438;-81
2022/01/19 03:41:26;;;;;;;9.98;5.45;;;;;;;-0.94;77.90;97885.33;1696756;84;21003;-80
2022/01/19 03:43:51;;;;;;;11.33;5.50;;;;;;;-0.91;77.88;97879.24;1696592;83;20979;-80
2022/01/19 03:46:18;;;;;;;12.53;5.03;;;;;;;-0.88;77.75;97884.19;1696522;84;21110;-80
2022/01/19 03:48:54;;;;;;;7.92;4.58;;;;;;;-0.84;77.85;97879.76;1696864;83;21047;-80
2022/01/19 03:51:14;;;;;;;9.63;5.03;;;;;;;-0.84;77.83;97865.27;1695706;84;21039;-80
2022/01/19 03:53:39;;;;;;;13.48;5.53;;;;;;;-0.83;77.81;97863.55;1696376;84;21307;-80
2022/01/19 03:56:05;;;;;;;10.43;4.33;;;;;;;-0.87;77.41;97860.77;1697000;82;21323;-80
2022/01/19 03:58:31;;;;;;;10.70;4.30;;;;;;;-0.94;77.45;97861.53;1696780;84;21078;-80
2022/01/19 04:00:59;;;;;;;10.68;4.55;;;;;;;-0.98;77.60;97862.14;1716789;82;21003;-80
2022/01/19 04:08:42;;;;;;;9.65;4.15;;;;;;;-1.06;77.70;97851.92;1696852;84;21051;-80
2022/01/19 04:11:07;;;;;;;11.50;4.78;;;;;;;-1.09;77.55;97844.42;1696708;84;20987;-80
2022/01/19 04:13:45;;;;;;;11.60;4.83;;;;;;;-1.15;77.48;97840.87;1696923;83;20988;-80
2022/01/19 04:16:01;;;;;;;8.35;4.40;;;;;;;-1.22;77.52;97839.07;1695054;82;21087;-80
2022/01/19 04:18:27;;;;;;;9.53;5.12;;;;;;;-1.28;77.51;97841.92;1697534;83;20965;-80
2022/01/19 04:20:53;;;;;;;7.47;4.42;;;;;;;-1.36;77.30;97835.90;1696776;83;21403;-80
2022/01/19 04:23:20;;;;;;;9.43;4.55;;;;;;;-1.45;77.49;97826.16;1696518;82;21373;-80
2022/01/19 04:25:46;;;;;;;6.42;4.33;;;;;;;-1.47;77.74;97825.37;1696481;84;20995;-80
2022/01/19 04:28:11;;;;;;;10.20;4.53;;;;;;;-1.47;77.62;97831.74;1696980;84;21374;-80
2022/01/19 04:30:38;;;;;;;8.90;4.17;;;;;;;-1.50;77.54;97830.62;1696974;82;21019;-80
2022/01/19 04:33:12;;;;;;;10.72;4.95;;;;;;;-1.56;77.41;97831.74;1684838;85;21070;-80
2022/01/19 04:35:43;;;;;;;10.00;5.75;;;;;;;-1.59;77.41;97824.69;1692555;83;21048;-80
2022/01/19 05:02:21;;;;;;;11.97;5.40;;;;;;;-1.95;77.47;97790.27;1687054;84;21119;-80
2022/01/19 05:07:05;;;;;;;11.10;6.12;;;;;;;-2.05;77.62;97778.39;1697598;82;21085;-80
2022/01/19 05:14:30;;;;;;;11.35;5.60;;;;;;;-2.14;77.72;97764.79;1669250;85;21065;-80
2022/01/19 05:16:56;;;;;;;9.25;5.65;;;;;;;-2.15;77.84;97765.24;1668679;84;20988;-80
2022/01/19 05:19:22;;;;;;;10.15;5.87;;;;;;;-2.16;77.94;97762.77;1668754;86;21043;-80
2022/01/19 05:21:47;;;;;;;9.53;5.03;;;;;;;-2.19;78.04;97758.64;1648162;86;21366;-80
2022/01/19 05:24:13;;;;;;;11.03;5.80;;;;;;;-2.21;78.01;97751.53;1668944;85;21054;-80
2022/01/19 05:26:39;;;;;;;10.15;5.42;;;;;;;-2.22;78.03;97746.50;1693439;82;20968;-80
2022/01/19 05:29:05;;;;;;;11.78;5.30;;;;;;;-2.24;78.04;97735.56;1697372;84;21431;-80
2022/01/19 05:31:30;;;;;;;8.05;5.10;;;;;;;-2.24;78.08;97738.94;1697134;83;21010;-80
2022/01/19 05:33:56;;;;;;;17.40;5.83;;;;;;;-2.24;78.04;97732.58;1697070;83;20991;-80
2022/01/19 05:36:22;;;;;;;12.75;5.15;;;;;;;-2.26;78.03;97731.82;1697431;84;21003;-80
2022/01/19 05:38:48;;;;;;;7.72;4.30;;;;;;;-2.25;78.01;97732.64;1696829;84;21056;-80
2022/01/19 05:41:13;;;;;;;9.93;5.00;;;;;;;-2.26;78.10;97733.09;1696834;84;21354;-80
2022/01/19 05:43:39;;;;;;;9.98;5.30;;;;;;;-2.27;78.07;97728.90;1697055;84;21007;-80
2022/01/19 05:46:05;;;;;;;9.80;5.53;;;;;;;-2.27;78.07;97728.90;1696959;84;21028;-80
2022/01/19 05:48:30;;;;;;;8.80;4.17;;;;;;;-2.30;77.99;97715.45;1696972;82;21090;-80
2022/01/19 05:50:56;;;;;;;10.95;4.75;;;;;;;-2.33;78.02;97711.34;1697124;84;20972;-80
2022/01/19 05:53:22;;;;;;;11.85;4.95;;;;;;;-2.34;78.08;97709.69;1700694;83;21367;-80
2022/01/19 05:55:48;;;;;;;6.87;4.37;;;;;;;-2.29;78.23;97704.38;1703408;83;21032;-80
2022/01/19 05:58:14;;;;;;;11.12;4.85;;;;;;;-2.29;78.20;97701.38;1696945;83;20968;-80
2022/01/19 06:00:39;;;;;;;9.75;4.75;;;;;;;-2.30;78.19;97697.19;1692554;84;21075;-80
2022/01/19 06:03:06;;;;;;;12.00;5.30;;;;;;;-2.30;78.18;97692.55;1676678;84;21059;-80
2022/01/19 06:05:33;;;;;;;58.48;21.42;;;;;;;-2.30;78.15;97692.09;1698100;84;21059;-80
2022/01/19 06:08:28;;;;;;;20.25;8.85;;;;;;;-2.36;77.95;97687.30;1696996;84;20995;-80
2022/01/19 06:10:45;;;;;;;17.55;8.68;;;;;;;-2.41;77.83;97686.69;1696282;84;20999;-80
2022/01/19 06:13:16;;;;;;;11.88;4.92;;;;;;;-2.43;78.07;97690.58;1697298;84;21058;-80
2022/01/19 06:15:42;;;;;;;10.98;4.53;;;;;;;-2.44;78.10;97683.84;1697306;83;20992;-80
2022/01/19 06:18:08;;;;;;;94.17;27.22;;;;;;;-2.41;78.08;97680.33;1696760;84;21028;-80
2022/01/19 06:20:34;;;;;;;28.77;17.70;;;;;;;-2.42;77.86;97671.87;1696733;84;20976;-80
2022/01/19 06:22:59;;;;;;;43.35;19.85;;;;;;;-2.42;77.99;97667.23;1696640;84;21461;-80
2022/01/19 06:25:25;;;;;;;28.85;15.95;;;;;;;-2.44;77.87;97666.48;1696755;84;21051;-79
2022/01/19 06:27:51;;;;;;;126.97;41.35;;;;;;;-2.45;77.84;97666.07;1697621;84;21062;-80
2022/01/19 06:30:16;;;;;;;58.28;20.70;;;;;;;-2.47;77.90;97666.14;1696859;84;20956;-80
2022/01/19 06:32:42;;;;;;;48.00;19.55;;;;;;;-2.50;77.88;97655.28;1696510;84;21338;-80
2022/01/19 06:35:08;;;;;;;42.20;18.82;;;;;;;-2.53;77.81;97656.25;1697599;83;20996;-80
2022/01/19 06:37:34;;;;;;;45.90;20.97;;;;;;;-2.59;77.73;97654.00;1675210;84;21007;-80
2022/01/19 06:40:02;;;;;;;45.78;18.95;;;;;;;-2.62;77.89;97655.84;1696965;83;20987;-80
2022/01/19 06:42:29;;;;;;;40.78;19.05;;;;;;;-2.66;77.97;97650.52;1696572;84;21036;-80
2022/01/19 06:44:55;;;;;;;43.45;17.98;;;;;;;-2.73;77.76;97649.53;1696703;84;21369;-80
2022/01/19 06:47:21;;;;;;;28.52;14.55;;;;;;;-2.79;77.81;97640.05;1696976;83;21394;-79
2022/01/19 06:49:47;;;;;;;28.20;14.10;;;;;;;-2.81;77.97;97643.13;1696622;83;21003;-80
2022/01/19 06:52:12;;;;;;;31.50;15.72;;;;;;;-2.85;78.16;97646.70;1697362;84;21062;-80
2022/01/19 06:54:38;;;;;;;32.15;15.55;;;;;;;-2.84;78.32;97660.63;1696638;84;21472;-80
2022/01/19 06:57:04;;;;;;;24.67;13.15;;;;;;;-2.83;78.23;97661.45;1696805;84;20971;-80
2022/01/19 06:59:30;;;;;;;38.53;19.07;;;;;;;-2.84;78.12;97662.34;1696776;84;21131;-80
2022/01/19 07:01:56;;;;;;;95.72;43.48;;;;;;;-2.88;77.86;97657.02;1696453;83;21454;-80
2022/01/19 07:04:22;;;;;;;75.20;35.30;;;;;;;-2.91;77.91;97641.45;1679288;83;21094;-80
2022/01/19 07:06:47;;;;;;;62.73;26.23;;;;;;;-3.00;77.60;97635.48;1668658;86;21102;-79
2022/01/19 07:09:13;;;;;;;42.00;20.88;;;;;;;-3.02;77.95;97627.11;1668765;86;20987;-80
2022/01/19 07:11:39;;;;;;;9.68;5.85;;;;;;;-3.02;78.07;97626.66;1668832;86;21369;-80
2022/01/19 07:14:05;;;;;;;8.18;6.08;;;;;;;-3.01;78.15;97623.67;1668707;85;21350;-80
2022/01/19 07:16:31;;;;;;;14.43;8.23;;;;;;;-2.98;78.41;97627.34;1679283;84;21009;-80
2022/01/19 07:18:57;;;;;;;26.50;14.10;;;;;;;-2.92;78.35;97635.16;1709500;84;20994;-80
2022/01/19 07:21:22;;;;;;;16.10;10.13;;;;;;;-2.96;78.26;97634.45;1709328;84;21376;-80
2022/01/19 07:23:48;;;;;;;10.63;5.92;;;;;;;-2.95;78.41;97632.73;1709325;83;21007;-80
2022/01/19 07:26:14;;;;;;;11.45;5.47;;;;;;;-2.93;78.49;97632.22;1709305;84;21002;-80
2022/01/19 07:28:40;;;;;;;8.53;4.50;;;;;;;-2.91;78.54;97637.64;1709231;84;20970;-79
2022/01/19 07:31:06;;;;;;;3.50;2.90;;;;;;;-2.91;78.64;97635.54;1709176;84;21424;-80
2022/01/19 07:33:31;;;;;;;5.67;4.20;;;;;;;-2.91;78.58;97640.63;1709428;84;20978;-80
2022/01/19 07:35:57;;;;;;;7.22;3.75;;;;;;;-2.88;78.78;97648.11;1709370;84;20991;-80
2022/01/19 07:38:24;;;;;;;5.65;3.40;;;;;;;-2.82;78.69;97655.47;1708909;83;21106;-80
2022/01/19 07:40:50;;;;;;;5.00;3.70;;;;;;;-2.79;78.66;97652.77;1709411;84;21512;-80
2022/01/19 07:43:15;;;;;;;16.30;9.60;;;;;;;-2.73;78.76;97652.08;1709291;84;21034;-79
2022/01/19 07:45:41;;;;;;;17.70;10.60;;;;;;;-2.69;78.71;97645.57;1709336;84;20998;-80
2022/01/19 07:48:07;;;;;;;86.12;45.38;;;;;;;-2.68;78.42;97635.32;1709242;83;21390;-80
2022/01/19 07:50:33;;;;;;;96.20;47.10;;;;;;;-2.71;78.14;97627.83;1709271;84;20991;-80
2022/01/19 07:52:59;;;;;;;63.42;33.98;;;;;;;-2.72;78.27;97630.00;1709427;83;21038;-80
2022/01/19 07:55:25;;;;;;;96.05;46.90;;;;;;;-2.69;78.31;97626.04;1709384;84;21010;-80
2022/01/19 07:57:51;;;;;;;94.10;47.53;;;;;;;-2.65;78.16;97617.36;1709378;83;21413;-80
2022/01/19 08:00:18;;;;;;;83.35;46.58;;;;;;;-2.64;77.91;97616.91;1707914;82;20911;-80
2022/01/19 08:02:45;;;;;;;90.10;48.52;;;;;;;-2.68;77.92;97617.52;1700615;84;20970;-80
2022/01/19 08:05:11;;;;;;;85.67;47.17;;;;;;;-2.65;77.92;97610.18;1681928;84;20992;-80
2022/01/19 08:07:37;;;;;;;85.30;48.05;;;;;;;-2.64;77.95;97602.92;1680919;85;21247;-80
2022/01/19 08:10:04;;;;;;;84.70;48.30;;;;;;;-2.64;77.89;97594.84;1681000;85;21377;-80
2022/01/19 08:12:30;;;;;;;77.17;42.17;;;;;;;-2.66;77.91;97583.91;1680809;85;21009;-80
2022/01/19 08:14:58;;;;;;;56.13;31.45;;;;;;;-2.65;77.87;97570.30;1680967;85;20966;-80
2022/01/19 08:17:23;;;;;;;54.53;30.15;;;;;;;-2.63;77.95;97579.95;1689250;85;20986;-80
2022/01/19 08:19:49;;;;;;;47.83;25.00;;;;;;;-2.57;78.02;97580.95;1688118;84;21440;-80
2022/01/19 08:22:14;;;;;;;42.45;23.83;;;;;;;-2.52;77.88;97584.10;1704440;84;20999;-79
2022/01/19 08:24:40;;;;;;;35.28;19.75;;;;;;;-2.52;77.82;97590.46;1709562;84;21034;-80
2022/01/19 08:27:06;;;;;;;17.30;9.25;;;;;;;-2.50;77.91;97592.94;1709655;83;21349;-80
2022/01/19 08:29:32;;;;;;;19.12;10.03;;;;;;;-2.47;77.94;97588.97;1709467;83;20966;-80
2022/01/19 08:31:57;;;;;;;23.85;12.60;;;;;;;-2.44;77.92;97588.84;1709667;83;20987;-80
2022/01/19 08:34:23;;;;;;;28.92;16.27;;;;;;;-2.38;77.93;97575.00;1709652;83;21023;-80
2022/01/19 08:36:49;;;;;;;39.63;20.30;;;;;;;-2.35;77.85;97569.75;1709653;84;21353;-80
2022/01/19 08:39:15;;;;;;;37.93;18.45;;;;;;;-2.34;77.59;97568.41;1709468;82;21011;-80
2022/01/19 08:41:41;;;;;;;37.58;20.72;;;;;;;-2.33;77.60;97567.50;1709538;84;21006;-79
2022/01/19 08:44:07;;;;;;;35.03;20.52;;;;;;;-2.32;77.55;97559.42;1709736;83;20947;-80
2022/01/19 08:46:32;;;;;;;44.30;23.80;;;;;;;-2.32;77.71;97561.52;1709684;83;20940;-80
2022/01/19 08:48:58;;;;;;;49.83;25.55;;;;;;;-2.29;77.75;97561.81;1709524;83;20963;-80
2022/01/19 08:51:24;;;;;;;46.10;23.87;;;;;;;-2.29;77.70;97560.09;1709701;83;20939;-80
2022/01/19 08:53:49;;;;;;;52.55;27.90;;;;;;;-2.28;77.61;97554.13;1709417;83;20974;-80
2022/01/19 08:56:15;;;;;;;46.25;24.23;;;;;;;-2.30;77.57;97546.98;1709272;83;21332;-80
2022/01/19 08:58:41;;;;;;;45.08;25.60;;;;;;;-2.32;77.58;97538.60;1709596;83;21345;-80
2022/01/19 09:01:07;;;;;;;50.52;26.62;;;;;;;-2.30;77.47;97533.44;1702177;82;20950;-80
2022/01/19 09:03:32;;;;;;;51.98;25.82;;;;;;;-2.29;77.51;97521.08;1664648;85;21025;-80
2022/01/19 09:05:59;;;;;;;40.10;22.05;;;;;;;-2.26;77.49;97518.41;1680971;85;20954;-80
2022/01/19 09:08:25;;;;;;;30.25;16.67;;;;;;;-2.26;77.39;97518.41;1684359;85;20931;-80
2022/01/19 09:10:53;;;;;;;21.20;12.00;;;;;;;-2.24;77.63;97514.06;1681185;85;21049;-79
2022/01/19 09:13:19;;;;;;;19.85;11.15;;;;;;;-2.20;77.51;97511.73;1660353;85;20982;-80
2022/01/19 09:15:45;;;;;;;20.57;12.10;;;;;;;-2.19;77.55;97507.83;1680188;85;21412;-80
2022/01/19 09:18:10;;;;;;;19.70;12.98;;;;;;;-2.18;77.42;97497.20;1682541;82;21021;-80
2022/01/19 09:20:36;;;;;;;22.67;12.63;;;;;;;-2.13;77.50;97501.60;1707653;83;21469;-79
2022/01/19 09:23:02;;;;;;;19.20;10.65;;;;;;;-2.07;77.54;97501.77;1696794;83;20961;-80
2022/01/19 09:25:28;;;;;;;19.00;9.50;;;;;;;-2.02;77.50;97501.90;1696436;84;21095;-80
2022/01/19 09:27:54;;;;;;;16.87;9.58;;;;;;;-1.98;77.41;97496.20;1696661;85;21107;-80
2022/01/19 09:30:22;;;;;;;15.28;7.92;;;;;;;-1.96;77.42;97504.12;1696850;84;20999;-80
2022/01/19 09:32:56;;;;;;;12.13;7.42;;;;;;;-1.89;77.42;97497.02;1696840;85;21044;-80
2022/01/19 09:35:23;;;;;;;15.53;8.38;;;;;;;-1.84;77.31;97499.70;1695621;84;21000;-80
2022/01/19 09:37:43;;;;;;;17.05;10.20;;;;;;;-1.78;77.31;97504.12;1695818;83;21392;-81
2022/01/19 09:40:11;;;;;;;16.55;9.90;;;;;;;-1.72;77.25;97507.17;1696662;83;21079;-80
2022/01/19 09:42:37;;;;;;;14.43;7.90;;;;;;;-1.67;77.32;97511.57;1696766;85;20988;-80
2022/01/19 09:45:04;;;;;;;30.88;16.30;;;;;;;-1.61;77.21;97507.45;1696691;85;21015;-80
2022/01/19 09:47:30;;;;;;;27.77;15.85;;;;;;;-1.56;77.00;97504.66;1696551;85;21039;-80
2022/01/19 09:49:56;;;;;;;32.50;20.60;;;;;;;-1.45;76.98;97506.66;1696683;83;21344;-80
2022/01/19 09:52:21;;;;;;;33.73;21.27;;;;;;;-1.41;76.81;97507.69;1702163;83;20928;-80
2022/01/19 09:54:47;;;;;;;33.55;20.43;;;;;;;-1.37;76.77;97504.52;1719065;83;21336;-80
2022/01/19 09:57:13;;;;;;;31.73;18.87;;;;;;;-1.33;76.92;97497.89;1688092;84;20976;-80
2022/01/19 09:59:38;;;;;;;28.60;17.37;;;;;;;-1.27;76.97;97486.11;1686135;84;21008;-80
2022/01/19 10:02:08;;;;;;;31.60;18.17;;;;;;;-1.23;76.64;97474.02;1683441;85;21031;-80
2022/01/19 10:04:37;;;;;;;23.83;15.83;;;;;;;-1.20;76.74;97472.56;1696923;82;21027;-80
2022/01/19 10:07:21;;;;;;;27.98;13.70;;;;;;;-1.14;76.82;97470.13;1696628;84;20972;-80
2022/01/19 10:09:56;;;;;;;24.23;14.30;;;;;;;-1.12;76.71;97469.63;1674900;84;21063;-80
2022/01/19 10:18:29;;;;;;;24.60;16.00;;;;;;;-0.94;77.02;97423.97;1666669;86;21027;-80
2022/01/19 10:21:18;;;;;;;27.90;16.62;;;;;;;-0.89;76.89;97414.31;1656864;86;21003;-80
2022/01/19 10:23:52;;;;;;;30.08;17.60;;;;;;;-0.85;76.83;97406.03;1656754;86;20999;-80
2022/01/19 10:26:27;;;;;;;32.75;19.60;;;;;;;-0.80;77.01;97396.41;1666924;84;21539;-80
2022/01/19 10:29:08;;;;;;;30.10;18.48;;;;;;;-0.71;76.91;97389.48;1645333;86;21078;-80
2022/01/19 10:31:36;;;;;;;32.90;18.15;;;;;;;-0.59;76.98;97387.97;1665639;84;21537;-80
2022/01/19 10:34:20;;;;;;;43.05;25.70;;;;;;;-0.48;76.87;97383.08;1653830;85;20998;-80
2022/01/19 10:36:51;;;;;;;44.40;25.62;;;;;;;-0.45;76.60;97376.05;1683613;85;21007;-80
2022/01/19 10:39:19;;;;;;;47.45;28.38;;;;;;;-0.35;76.55;97372.03;1683342;84;21067;-80
2022/01/19 10:42:09;;;;;;;43.08;27.52;;;;;;;-0.25;76.57;97367.22;1676884;85;20999;-80
2022/01/19 10:44:41;;;;;;;48.85;29.23;;;;;;;-0.20;76.01;97356.27;1666866;85;21082;-80
2022/01/19 10:47:07;;;;;;;51.15;30.57;;;;;;;-0.12;75.86;97350.25;1666825;85;21011;-80
2022/01/19 10:49:53;;;;;;;48.08;29.55;;;;;;;0.03;75.94;97343.86;1666689;85;20999;-80
2022/01/19 10:52:39;;;;;;;55.28;31.27;;;;;;;0.14;75.69;97342.27;1666407;86;21297;-80
2022/01/19 10:55:13;;;;;;;46.37;28.65;;;;;;;0.24;75.65;97343.81;1645872;86;21441;-80
2022/01/19 10:57:41;;;;;;;52.20;28.15;;;;;;;0.30;75.50;97341.69;1655003;87;20988;-80
2022/01/19 11:00:17;;;;;;;58.05;31.12;;;;;;;0.36;75.90;97341.78;1656743;86;21059;-80
2022/01/19 11:02:44;;;;;;;47.80;28.75;;;;;;;0.42;76.14;97336.73;1656840;86;20948;-80
2022/01/19 11:05:10;;;;;;;50.80;30.45;;;;;;;0.44;75.97;97339.56;1656532;86;20968;-80
2022/01/19 11:07:38;;;;;;;47.00;29.82;;;;;;;0.48;75.84;97329.49;1656434;86;21039;-81
2022/01/19 11:12:43;;;;;;;52.80;30.40;;;;;;;0.55;75.85;97324.38;1637614;87;20984;-80
2022/01/19 11:15:03;;;;;;;50.98;31.15;;;;;;;0.64;76.07;97320.39;1666305;86;21039;-80
2022/01/19 11:17:29;;;;;;;51.10;32.93;;;;;;;0.73;76.32;97314.70;1667924;85;21067;-80
2022/01/19 11:19:55;;;;;;;48.98;30.43;;;;;;;0.87;75.98;97311.27;1668808;86;21020;-80
2022/01/19 11:22:59;;;;;;;54.53;30.50;;;;;;;0.87;75.98;97311.27;1677040;83;20984;-80
2022/01/19 11:25:35;;;;;;;50.95;31.35;;;;;;;0.96;76.33;97309.84;1696583;84;21062;-80
2022/01/19 11:28:02;;;;;;;51.90;31.73;;;;;;;1.03;76.78;97297.02;1696643;85;21466;-80
2022/01/19 11:30:31;;;;;;;57.50;31.55;;;;;;;1.08;76.35;97287.30;1675248;83;21001;-80
2022/01/19 11:33:17;;;;;;;54.00;32.10;;;;;;;1.14;75.84;97277.95;1678915;84;21363;-80
2022/01/19 11:35:47;;;;;;;50.00;29.82;;;;;;;1.25;75.85;97278.03;1696540;84;21078;-80
2022/01/19 11:38:42;;;;;;;57.03;32.53;;;;;;;1.32;75.71;97272.06;1696250;84;20999;-80
2022/01/19 11:41:16;;;;;;;58.90;33.50;;;;;;;1.37;75.54;97258.48;1695809;83;21394;-80
2022/01/19 11:43:52;;;;;;;50.75;31.27;;;;;;;1.38;75.53;97248.13;1696684;84;21019;-80
2022/01/19 11:46:39;;;;;;;49.95;30.40;;;;;;;1.41;75.97;97250.94;1696816;84;21366;-81
2022/01/19 11:49:06;;;;;;;48.48;32.03;;;;;;;1.42;75.53;97244.89;1696851;83;21068;-80
2022/01/19 11:51:38;;;;;;;52.88;31.07;;;;;;;1.46;75.86;97239.91;1696877;84;20952;-81
2022/01/19 11:54:08;;;;;;;48.10;29.87;;;;;;;1.50;75.83;97228.56;1696665;84;21032;-80
2022/01/19 11:57:03;;;;;;;53.85;31.85;;;;;;;1.54;75.91;97206.11;1708089;84;21070;-80
2022/01/19 11:59:47;;;;;;;49.05;29.30;;;;;;;1.61;76.02;97202.19;1696970;84;21074;-80
2022/01/19 12:02:35;;;;;;;49.58;29.05;;;;;;;1.63;75.21;97192.22;1696797;84;20968;-81
2022/01/19 12:05:03;;;;;;;46.28;27.75;;;;;;;1.67;75.52;97189.79;1696299;84;21395;-80
2022/01/19 12:07:48;;;;;;;47.88;28.00;;;;;;;1.74;75.60;97183.77;1693549;84;21051;-81
2022/01/19 12:10:32;;;;;;;55.33;30.75;;;;;;;1.77;75.69;97180.52;1696979;84;20968;-80
2022/01/19 12:16:29;;;;;;;51.25;29.20;;;;;;;1.85;75.83;97168.46;1696632;84;20991;-81
2022/01/19 12:18:53;;;;;;;42.38;25.68;;;;;;;1.85;75.25;97161.23;1703280;82;21112;-81
2022/01/19 12:21:37;;;;;;;44.05;28.38;;;;;;;1.85;75.17;97153.55;1697304;83;21370;-81
2022/01/19 12:24:22;;;;;;;45.15;29.12;;;;;;;1.84;75.17;97146.33;1696639;84;20996;-81
2022/01/19 12:26:58;;;;;;;45.50;28.23;;;;;;;1.85;75.24;97140.27;1696614;84;21115;-80
2022/01/19 12:29:38;;;;;;;51.25;30.90;;;;;;;1.86;75.68;97134.68;1696880;82;21031;-80
2022/01/19 12:32:21;;;;;;;42.33;28.65;;;;;;;1.87;75.73;97126.88;1695495;83;21003;-81
2022/01/19 12:35:17;;;;;;;44.53;28.50;;;;;;;1.85;75.63;97133.87;1697161;83;20926;-81
2022/01/19 12:37:55;;;;;;;55.03;33.53;;;;;;;1.79;75.49;97134.31;1677972;85;21079;-80
2022/01/19 12:40:35;;;;;;;51.90;32.17;;;;;;;1.74;75.35;97124.37;1668402;85;21037;-80
2022/01/19 12:43:11;;;;;;;52.80;31.42;;;;;;;1.76;75.26;97127.63;1668776;85;21019;-81
2022/01/19 12:45:48;;;;;;;52.73;31.45;;;;;;;1.77;75.33;97124.14;1668708;86;21399;-81
2022/01/19 12:48:14;;;;;;;50.45;31.25;;;;;;;1.78;75.41;97118.09;1674002;83;21366;-80
2022/01/19 12:50:43;;;;;;;50.08;31.50;;;;;;;1.79;75.34;97115.91;1696511;84;21074;-81
2022/01/19 12:53:24;;;;;;;50.90;31.80;;;;;;;1.81;75.50;97099.14;1696658;84;21007;-81
2022/01/19 12:55:57;;;;;;;54.13;31.50;;;;;;;1.81;75.54;97106.83;1696473;84;21026;-81
2022/01/19 12:58:34;;;;;;;51.48;30.92;;;;;;;1.84;75.56;97103.23;1696538;84;20960;-81
2022/01/19 13:01:03;;;;;;;55.90;34.45;;;;;;;1.84;75.65;97101.95;1696588;84;20999;-81
2022/01/19 13:03:41;;;;;;;52.13;29.72;;;;;;;1.84;75.41;97089.13;1696665;84;21494;-80